createdAt,value
2018-04-08T09:01:09.672Z,44.00
2018-04-08T09:03:41.555Z,44.40
2018-04-08T09:06:13.441Z,44.40
2018-04-08T09:08:45.319Z,43.90
2018-04-08T09:11:18.019Z,43.60
2018-04-08T09:13:49.915Z,43.60
2018-04-08T09:16:21.785Z,43.90
2018-04-08T09:18:53.995Z,43.80
2018-04-08T09:21:25.871Z,44.60
2018-04-08T09:23:58.024Z,44.00
2018-04-08T09:26:30.196Z,44.00
2018-04-08T09:29:02.103Z,44.40
2018-04-08T09:31:33.967Z,43.70
2018-04-08T09:34:06.071Z,43.50
2018-04-08T09:36:38.033Z,43.40
2018-04-08T09:39:10.679Z,44.10
2018-04-08T09:41:42.787Z,44.00
2018-04-08T09:44:14.672Z,44.10
2018-04-08T09:46:46.803Z,43.10
2018-04-08T09:49:18.971Z,44.00
2018-04-08T09:51:51.139Z,42.10
2018-04-08T09:54:23.029Z,40.90
2018-04-08T09:56:54.908Z,41.40
2018-04-08T09:59:26.895Z,42.30
2018-04-08T10:01:59.807Z,42.20
2018-04-08T10:04:31.700Z,42.20
2018-04-08T10:07:03.575Z,42.70
2018-04-08T10:09:35.467Z,42.60
2018-04-08T10:12:08.140Z,42.40
2018-04-08T10:14:40.032Z,42.30
2018-04-08T10:17:11.911Z,42.00
2018-04-08T10:19:43.799Z,41.20
2018-04-08T10:22:15.673Z,41.70
2018-04-08T10:24:47.578Z,41.60
2018-04-08T10:27:19.451Z,42.20
2018-04-08T10:29:51.347Z,42.90
2018-04-08T10:32:23.220Z,42.90
2018-04-08T10:34:55.111Z,43.80
2018-04-08T10:37:26.992Z,43.20
2018-04-08T10:39:58.874Z,43.10
2018-04-08T10:42:30.771Z,42.80
2018-04-08T10:45:03.466Z,42.50
2018-04-08T10:47:35.383Z,42.50
2018-04-08T10:50:07.295Z,42.60
2018-04-08T10:52:39.457Z,43.00
2018-04-08T10:55:11.347Z,42.20
2018-04-08T10:57:43.234Z,42.50
2018-04-08T11:00:15.346Z,41.70
2018-04-08T11:02:47.219Z,41.30
2018-04-08T11:05:19.398Z,41.10
2018-04-08T11:07:51.271Z,40.60
2018-04-08T11:10:23.163Z,40.80
2018-04-08T11:12:55.356Z,40.70
2018-04-08T11:15:27.247Z,40.40
2018-04-08T11:17:59.128Z,40.60
2018-04-08T11:20:31.011Z,40.70
2018-04-08T11:23:02.883Z,40.60
2018-04-08T11:25:35.539Z,41.00
2018-04-08T11:28:07.417Z,40.90
2018-04-08T11:30:40.063Z,40.30
2018-04-08T11:33:11.940Z,40.20
2018-04-08T11:35:44.143Z,40.70
2018-04-08T11:38:16.030Z,40.70
2018-04-08T11:40:47.912Z,40.60
2018-04-08T11:43:19.789Z,39.80
2018-04-08T11:45:51.678Z,40.00
2018-04-08T11:48:24.569Z,38.50
2018-04-08T11:50:56.472Z,38.40
2018-04-08T11:53:28.355Z,38.70
2018-04-08T11:56:00.247Z,38.20
2018-04-08T11:58:32.135Z,37.90
2018-04-08T12:01:04.019Z,38.00
2018-04-08T12:03:35.895Z,37.10
2018-04-08T12:06:07.787Z,37.40
2018-04-08T12:08:39.672Z,38.00
2018-04-08T12:11:11.568Z,37.40
2018-04-08T12:13:43.447Z,36.80
2018-04-08T12:16:15.327Z,36.50
2018-04-08T12:18:47.498Z,38.30
2018-04-08T12:21:19.383Z,37.30
2018-04-08T12:23:51.258Z,37.50
2018-04-08T12:26:23.143Z,37.60
2018-04-08T12:28:55.019Z,36.80
2018-04-08T12:31:27.680Z,37.10
2018-04-08T12:33:59.552Z,37.00
2018-04-08T12:36:32.463Z,37.50
2018-04-08T12:39:05.554Z,36.80
2018-04-08T12:41:37.715Z,36.30
2018-04-08T12:44:09.600Z,36.40
2018-04-08T12:46:41.484Z,35.40
2018-04-08T12:49:13.600Z,36.70
2018-04-08T12:51:45.531Z,36.00
2018-04-08T12:54:17.367Z,36.10
2018-04-08T12:56:49.260Z,36.50
2018-04-08T12:59:21.920Z,36.70
2018-04-08T13:01:53.823Z,36.70
2018-04-08T13:04:25.982Z,36.60
2018-04-08T13:06:57.876Z,37.10
2018-04-08T13:09:29.746Z,37.30
2018-04-08T13:12:01.668Z,37.10
2018-04-08T13:14:34.312Z,36.40
2018-04-08T13:17:06.199Z,36.40
2018-04-08T13:19:38.847Z,36.20
2018-04-08T13:22:10.744Z,36.10
2018-04-08T13:24:42.907Z,36.00
2018-04-08T13:27:14.795Z,36.40
2018-04-08T13:29:46.671Z,35.90
2018-04-08T13:32:18.563Z,35.70
2018-04-08T13:34:50.434Z,35.60
2018-04-08T13:37:23.083Z,35.90
2018-04-08T13:39:54.989Z,35.80
2018-04-08T13:42:27.888Z,35.80
2018-04-08T13:44:59.759Z,35.80
2018-04-08T13:47:31.659Z,35.00
2018-04-08T13:50:03.530Z,35.00
2018-04-08T13:52:36.435Z,35.30
2018-04-08T13:55:08.606Z,35.30
2018-04-08T13:57:40.488Z,35.60
2018-04-08T14:00:12.627Z,35.40
2018-04-08T14:02:44.515Z,35.40
2018-04-08T14:05:16.379Z,34.90
2018-04-08T14:07:48.307Z,34.50
2018-04-08T14:10:20.939Z,34.10
2018-04-08T14:12:52.823Z,34.00
2018-04-08T14:15:25.463Z,34.00
2018-04-08T14:17:57.364Z,33.90
2018-04-08T14:20:30.267Z,34.50
2018-04-08T14:23:02.436Z,34.50
2018-04-08T14:25:34.311Z,34.10
2018-04-08T14:28:06.209Z,34.30
2018-04-08T14:30:38.322Z,34.10
2018-04-08T14:33:10.283Z,34.40
2018-04-08T14:35:42.920Z,35.50
2018-04-08T14:38:15.027Z,34.90
2018-04-08T14:40:47.191Z,34.30
2018-04-08T14:43:19.079Z,34.50
2018-04-08T14:45:50.951Z,35.00
2018-04-08T14:48:22.847Z,35.00
2018-04-08T14:50:55.039Z,34.80
2018-04-08T14:53:26.935Z,34.60
2018-04-08T14:55:58.807Z,34.30
2018-04-08T14:58:30.692Z,35.00
2018-04-08T15:01:02.569Z,35.30
2018-04-08T15:03:35.223Z,33.50
2018-04-08T15:06:07.091Z,33.50
2018-04-08T15:08:38.977Z,33.50
2018-04-08T15:11:10.848Z,33.40
2018-04-08T15:13:42.812Z,32.80
2018-04-08T15:16:14.972Z,31.80
2018-04-08T15:18:47.134Z,30.40
2018-04-08T15:21:19.299Z,30.70
2018-04-08T15:23:51.187Z,30.30
2018-04-08T15:26:23.059Z,29.90
2018-04-08T15:28:54.947Z,30.00
2018-04-08T15:31:26.820Z,30.20
2018-04-08T15:33:59.727Z,31.20
2018-04-08T15:36:32.370Z,32.10
2018-04-08T15:39:05.030Z,32.50
2018-04-08T15:41:36.911Z,32.50
2018-04-08T15:44:08.797Z,33.00
2018-04-08T15:46:41.431Z,33.90
2018-04-08T15:49:13.318Z,33.90
2018-04-08T15:51:45.955Z,34.60
2018-04-08T15:54:17.842Z,33.90
2018-04-08T15:56:49.952Z,34.00
2018-04-08T15:59:22.111Z,34.20
2018-04-08T16:01:53.983Z,33.40
2018-04-08T16:04:26.140Z,33.60
2018-04-08T16:06:58.304Z,34.50
2018-04-08T16:09:30.197Z,34.90
2018-04-08T16:12:02.088Z,34.20
2018-04-08T16:14:33.988Z,34.20
2018-04-08T16:17:05.859Z,34.00
2018-04-08T16:19:37.747Z,34.00
2018-04-08T16:22:09.650Z,34.30
2018-04-08T16:24:41.509Z,34.60
2018-04-08T16:27:14.144Z,34.60
2018-04-08T16:29:46.028Z,34.50
2018-04-08T16:32:17.923Z,34.60
2018-04-08T16:34:49.809Z,34.80
2018-04-08T16:37:21.679Z,34.80
2018-04-08T16:39:53.592Z,34.80
2018-04-08T16:42:26.263Z,34.20
2018-04-08T16:44:58.919Z,34.30
2018-04-08T16:47:30.790Z,34.30
2018-04-08T16:50:02.703Z,34.20
2018-04-08T16:52:34.558Z,33.80
2018-04-08T16:55:06.707Z,34.10
2018-04-08T16:57:38.584Z,33.40
2018-04-08T17:00:10.467Z,34.00
2018-04-08T17:02:42.343Z,33.50
2018-04-08T17:05:14.249Z,33.10
2018-04-08T17:07:46.414Z,32.80
2018-04-08T17:10:18.319Z,32.90
2018-04-08T17:12:50.215Z,33.20
2018-04-08T17:15:22.866Z,33.00
2018-04-08T17:17:54.744Z,33.00
2018-04-08T17:20:26.632Z,33.00
2018-04-08T17:22:58.503Z,32.90
2018-04-08T17:25:30.387Z,33.00
2018-04-08T17:28:02.263Z,33.40
2018-04-08T17:30:34.155Z,33.40
2018-04-08T17:33:06.800Z,33.20
2018-04-08T17:35:38.678Z,33.10
2018-04-08T17:38:10.563Z,34.00
2018-04-08T17:40:43.267Z,33.20
2018-04-08T17:43:15.135Z,33.20
2018-04-08T17:45:47.021Z,32.90
2018-04-08T17:48:19.140Z,33.00
2018-04-08T17:50:51.035Z,33.00
2018-04-08T17:53:22.900Z,33.20
2018-04-08T17:55:54.784Z,33.40
2018-04-08T17:58:26.662Z,33.40
2018-04-08T18:00:59.309Z,33.60
2018-04-08T18:03:31.186Z,33.60
2018-04-08T18:06:03.063Z,33.70
2018-04-08T18:08:35.820Z,34.40
2018-04-08T18:11:07.939Z,34.30
2018-04-08T18:13:39.807Z,34.50
2018-04-08T18:16:11.853Z,35.00
2018-04-08T18:18:44.011Z,35.40
2018-04-08T18:21:16.664Z,36.20
2018-04-08T18:23:48.579Z,36.10
2018-04-08T18:26:20.463Z,36.80
2018-04-08T18:28:52.347Z,37.10
2018-04-08T18:31:24.275Z,37.50
2018-04-08T18:33:56.138Z,37.80
2018-04-08T18:36:28.023Z,38.30
2018-04-08T18:39:00.029Z,38.70
2018-04-08T18:41:31.875Z,38.80
2018-04-08T18:44:03.751Z,38.60
2018-04-08T18:46:35.762Z,38.80
2018-04-08T18:49:07.655Z,38.90
2018-04-08T18:51:40.295Z,39.50
2018-04-08T18:54:12.331Z,39.50
2018-04-08T18:56:44.264Z,39.70
2018-04-08T18:59:16.312Z,39.90
2018-04-08T19:01:48.963Z,42.00
2018-04-08T19:04:20.835Z,41.80
2018-04-08T19:06:53.624Z,43.70
2018-04-08T19:09:26.531Z,42.30
2018-04-08T19:11:58.423Z,42.30
2018-04-08T19:14:30.408Z,42.00
2018-04-08T19:17:02.286Z,42.10
2018-04-08T19:19:34.168Z,42.30
2018-04-08T19:22:06.821Z,42.00
2018-04-08T19:24:38.814Z,41.90
2018-04-08T19:27:11.501Z,42.60
2018-04-08T19:29:43.380Z,42.60
2018-04-08T19:32:15.268Z,43.00
2018-04-08T19:34:47.140Z,43.60
2018-04-08T19:37:19.026Z,43.70
